• Join FlightAware (Why Join?)
  • Login
  • US Flag 
11:55AM EDT


 

Airport Tracker/Info


-or-


 

Live Flight TrackerFlight Track Log ✈ AWE2690 ✈ 01-Sep-2013 ✈ KCLT - KIND

Flight Track Log - Related Links

Times and Time Zones

All times are in EDT time to prevent confusion due to time zone crossing. See the AWE2690 flight status page for this flight to view local times or setup timezone preferences in your user account.

Time Position Orientation Groundspeed Altitude Reporting Facility
EDT Latitude Longitude Course Direction KTS MPH feet Rate Location/Type
01:28PM 35.1869 -80.9511 52° Northeast 162 186 1,600  Level Atlanta Center
01:29PM 35.1331 -80.9581 186° South 224 258 2,800 1,980 Climbing Atlanta Center
01:30PM 35.1250 -81.0550 264° West 266 306 5,900 2,520 Climbing Atlanta Center
01:31PM 35.2420 -81.2167 North  Level FlightAware Approximate
01:31PM 35.1269 -81.1411 272° West 264 304 8,000  Level Atlanta Center
01:32PM 35.3134 -81.1196 52° Northeast  Level FlightAware Approximate
01:32PM 35.1769 -81.2258 306° West 310 357 10,200  Level Atlanta Center
01:33PM 35.3857 -81.0059 52° Northeast  Level FlightAware Approximate
01:33PM 35.2644 -81.2203 North 310 357 11,800  Level Atlanta Center
01:34PM 35.3508 -81.1689 26° Northeast 323 372 13,700 1,980 Climbing Atlanta Center
01:35PM 35.4436 -81.2067 342° North 333 383 15,800 1,980 Climbing Atlanta Center
01:36PM 35.5364 -81.2494 339° North 347 399 17,700 1,560 Climbing Atlanta Center
01:37PM 35.6311 -81.2894 341° North 352 405 19,000 1,500 Climbing Atlanta Center
01:38PM 35.7492 -81.3444 339° North 396 456 20,800 1,620 Climbing Atlanta Center
01:39PM 35.8503 -81.3947 338° Northwest 396 456 22,300 1,260 Climbing Atlanta Center
01:40PM 35.9539 -81.4506 336° Northwest 396 456 23,400 1,020 Climbing Atlanta Center
01:41PM 36.0425 -81.5067 333° Northwest 396 456 24,400 1,080 Climbing Atlanta Center
01:42PM 36.1136 -81.6175 308° West 401 461 25,600 1,080 Climbing Atlanta Center
01:43PM 36.1764 -81.7339 304° West 412 474 26,600 1,020 Climbing Atlanta Center
01:44PM 36.2392 -81.8608 302° West 424 488 27,700 1,080 Climbing Atlanta Center
01:45PM 36.3081 -81.9931 303° West 424 488 28,800 1,020 Climbing Atlanta Center
01:46PM 36.3728 -82.1153 303° West 429 494 29,800 960 Climbing Atlanta Center
01:47PM 36.4392 -82.2400 304° West 429 494 30,800 960 Climbing Atlanta Center
01:48PM 36.5036 -82.3653 303° West 429 494 31,800 900 Climbing Atlanta Center
01:50PM 36.6558 -82.6553 303° West 425 489 34,000 600 Climbing Indianapolis Center
01:51PM 36.7203 -82.7828 302° West 429 494 34,000  Level Indianapolis Center
01:52PM 36.7894 -82.9206 302° West 452 520 34,000  Level Indianapolis Center
01:53PM 36.8631 -83.0586 304° West 463 533 34,000  Level Indianapolis Center
01:55PM 36.9331 -83.1942 303° West 458 527 34,000  Level Indianapolis Center
01:56PM 37.0000 -83.3264 302° West 450 518 34,000  Level Indianapolis Center
01:57PM 37.0675 -83.4569 303° West 446 513 34,000  Level Indianapolis Center
01:58PM 37.1319 -83.5861 302° West 437 503 34,000  Level Indianapolis Center
01:59PM 37.1967 -83.7150 302° West 436 502 34,000  Level Indianapolis Center
02:00PM 37.2789 -83.8300 312° West 444 511 34,000  Level Indianapolis Center
02:01PM 37.3633 -83.9422 313° West 442 509 34,000  Level Indianapolis Center
02:02PM 37.4461 -84.0556 313° West 440 506 34,000  Level Indianapolis Center
02:03PM 37.5294 -84.1683 313° West 438 504 34,000  Level Indianapolis Center
02:04PM 37.6122 -84.2800 313° West 437 503 34,000 -180 Level Indianapolis Center
02:05PM 37.6939 -84.3922 313° West 434 499 33,700 -780 Descending Indianapolis Center
02:06PM 37.7906 -84.5233 313° West 436 502 32,500 -1,140 Descending Indianapolis Center
02:07PM 37.8725 -84.6381 312° West 437 503 31,500 -1,020 Descending Indianapolis Center
02:08PM 37.9536 -84.7508 312° West 433 498 30,500 -1,020 Descending Indianapolis Center
02:09PM 38.0367 -84.8631 313° West 433 498 29,500 -1,020 Descending Indianapolis Center
02:10PM 38.1194 -84.9789 312° West 441 507 28,500 -780 Descending Indianapolis Center
02:11PM 38.2047 -85.0964 313° West 450 518 28,000 -300 Descending Indianapolis Center
02:12PM 38.2864 -85.2078 313° West 437 503 28,000 -600 Level Indianapolis Center
02:13PM 38.3647 -85.3203 312° West 426 490 26,900 -1,140 Descending Indianapolis Center
02:14PM 38.4425 -85.4289 312° West 417 480 25,700 -1,260 Descending Indianapolis Center
02:15PM 38.5186 -85.5367 312° West 411 473 24,400 -1,740 Descending Indianapolis Center
02:16PM 38.6044 -85.6325 319° Northwest 414 476 22,200 -2,160 Descending Indianapolis Center
02:17PM 38.7111 -85.6572 350° North 402 463 20,100 -2,400 Descending Indianapolis Center
02:18PM 38.8369 -85.6800 352° North 387 445 17,400 -2,460 Descending Indianapolis Center
02:19PM 38.9383 -85.6989 352° North 374 430 15,200 -1,980 Descending Indianapolis Center
02:20PM 39.0317 -85.7161 352° North 349 402 13,400 -1,620 Descending Indianapolis Center
02:21PM 39.1217 -85.7322 352° North 331 381 11,900 -1,500 Descending Indianapolis Center
02:22PM 39.2142 -85.7494 352° North 335 386 10,400 -960 Descending Indianapolis Center
02:23PM 39.3061 -85.7667 352° North 335 386 10,000 -240 Descending Indianapolis Center
02:24PM 39.3747 -85.8414 320° Northwest 322 371 10,000  Level Indianapolis Center
02:25PM 39.4417 -85.9208 318° Northwest 328 377 10,000 -420 Level Indianapolis Center
02:26PM 39.5022 -85.9919 318° Northwest 302 348 9,200 -1,320 Descending Indianapolis Center
02:27PM 39.5675 -86.0694 318° Northwest 273 314 7,400 -1,080 Descending Indianapolis Center
02:28PM 39.6208 -86.1333 317° Northwest 264 304 7,000 -240 Descending Indianapolis Center
02:29PM 39.6797 -86.1736 332° Northwest 253 291 7,000 -300 Level Indianapolis Center
02:30PM 39.7297 -86.1275 35° Northeast 230 265 6,500 -1,260 Descending Indianapolis Center
02:31PM 39.7722 -86.0617 50° Northeast 236 272 4,500 -1,260 Descending Indianapolis Center
02:32PM 39.8208 -86.0106 39° Northeast 241 277 4,000 -480 Descending Indianapolis Center
02:33PM 39.8500 -86.0675 304° West 231 266 3,600 -540 Descending Indianapolis Center
02:34PM 39.8214 -86.1503 246° West 228 262 3,000 -540 Descending Indianapolis Center
02:35PM 39.7817 -86.2014 225° Southwest 212 244 2,500 -660 Descending Indianapolis Center
02:36PM 39.7494 -86.2419 224° Southwest 186 214 1,700 -840 Descending Indianapolis Center
02:37PM 39.7200 -86.2792 224° Southwest 160 184 900 -480 Descending Indianapolis Center
02:38PM 39.7064 -86.2983 227° Southwest 92 106 800 -60 Descending Indianapolis Center
02:39PM 39.7108 -86.2942 36° Northeast 44 51 800  Level Indianapolis Center
02:40PM 39.7144 -86.2928 16° North 24 28 800  Level Indianapolis Center
02:41PM 39.7178 -86.2922 North 17 20 800  Level Indianapolis Center
02:42PM 39.7150 -86.2961 227° Southwest 14 16 800  Level Indianapolis Center